createdAt,value
2023-03-03T00:00:51.546Z,24.10
2023-03-03T00:03:24.608Z,22.47
2023-03-03T00:05:54.191Z,21.30
2023-03-03T00:08:24.527Z,21.80
2023-03-03T00:10:55.785Z,24.80
2023-03-03T00:13:27.485Z,20.93
2023-03-03T00:16:00.551Z,28.90
2023-03-03T00:18:33.406Z,24.07
2023-03-03T00:21:03.108Z,21.60
2023-03-03T00:23:33.897Z,18.50
2023-03-03T00:26:03.736Z,24.33
2023-03-03T00:28:34.066Z,24.13
2023-03-03T00:31:04.521Z,23.30
2023-03-03T00:33:36.314Z,26.77
2023-03-03T00:36:22.678Z,21.17
2023-03-03T00:38:52.280Z,21.77
2023-03-03T00:41:25.075Z,21.07
2023-03-03T00:43:54.767Z,21.87
2023-03-03T00:46:24.903Z,22.53
2023-03-03T00:48:55.699Z,21.20
2023-03-03T00:51:28.714Z,19.87
2023-03-03T00:53:58.258Z,22.67
2023-03-03T00:56:28.023Z,20.77
2023-03-03T00:58:57.436Z,22.27
2023-03-03T01:01:28.441Z,24.43
2023-03-03T01:03:59.127Z,21.47
2023-03-03T01:06:28.542Z,23.20
2023-03-03T01:08:58.210Z,20.30
2023-03-03T01:11:28.863Z,20.53
2023-03-03T01:13:58.587Z,19.10
2023-03-03T01:16:29.386Z,22.23
2023-03-03T01:19:00.124Z,22.63
2023-03-03T01:21:29.374Z,20.00
2023-03-03T01:23:58.510Z,20.80
2023-03-03T01:26:28.490Z,27.03
2023-03-03T01:28:57.777Z,26.20
2023-03-03T01:31:27.282Z,23.40
2023-03-03T01:33:56.579Z,20.30
2023-03-03T01:36:27.739Z,23.10
2023-03-03T01:38:57.133Z,19.93
2023-03-03T01:41:29.292Z,17.73
2023-03-03T01:43:58.872Z,17.60
2023-03-03T01:46:32.902Z,21.37
2023-03-03T01:49:04.008Z,18.13
2023-03-03T01:51:36.070Z,26.13
2023-03-03T01:54:07.842Z,17.27
2023-03-03T01:56:37.162Z,17.17
2023-03-03T01:59:07.993Z,17.93
2023-03-03T02:02:02.420Z,20.63
2023-03-03T02:04:31.637Z,18.53
2023-03-03T02:07:04.559Z,31.97
2023-03-03T02:09:37.152Z,18.27
2023-03-03T02:12:09.806Z,16.17
2023-03-03T02:14:39.521Z,13.70
2023-03-03T02:17:09.043Z,18.63
2023-03-03T02:19:46.126Z,17.70
2023-03-03T02:22:17.984Z,19.13
2023-03-03T02:24:51.290Z,21.40
2023-03-03T02:27:24.588Z,20.23
2023-03-03T02:29:54.212Z,17.27
2023-03-03T02:32:23.631Z,19.63
2023-03-03T02:34:53.660Z,15.57
2023-03-03T02:37:23.186Z,21.70
2023-03-03T02:39:52.611Z,23.07
2023-03-03T02:42:23.368Z,17.90
2023-03-03T02:44:58.531Z,19.83
2023-03-03T02:47:27.969Z,16.13
2023-03-03T02:49:57.161Z,17.73
2023-03-03T02:52:26.587Z,18.80
2023-03-03T02:54:55.944Z,20.60
2023-03-03T02:57:25.185Z,20.13
2023-03-03T02:59:56.384Z,20.20
2023-03-03T03:02:27.780Z,26.63
2023-03-03T03:04:58.314Z,18.73
2023-03-03T03:07:28.309Z,20.63
2023-03-03T03:09:57.788Z,21.07
2023-03-03T03:12:30.090Z,17.00
2023-03-03T03:15:00.125Z,25.00
2023-03-03T03:17:31.625Z,18.07
2023-03-03T03:20:02.631Z,19.10
2023-03-03T03:22:32.910Z,17.33
2023-03-03T03:25:02.229Z,21.53
2023-03-03T03:27:32.292Z,18.93
2023-03-03T03:30:01.546Z,17.97
2023-03-03T03:32:33.498Z,20.03
2023-03-03T03:35:03.340Z,17.07
2023-03-03T03:37:32.604Z,18.87
2023-03-03T03:40:02.052Z,22.23
2023-03-03T03:42:32.653Z,21.77
2023-03-03T03:45:02.005Z,17.10
2023-03-03T03:47:31.612Z,16.37
2023-03-03T03:50:02.433Z,22.97
2023-03-03T03:52:31.859Z,20.20
2023-03-03T03:55:01.128Z,17.03
2023-03-03T03:57:31.044Z,17.70
2023-03-03T04:00:00.460Z,20.67
2023-03-03T04:02:30.318Z,19.37
2023-03-03T04:04:59.757Z,18.80
2023-03-03T04:07:30.806Z,20.00
2023-03-03T04:10:00.488Z,20.03
2023-03-03T04:12:30.524Z,19.67
2023-03-03T04:15:00.208Z,22.93
2023-03-03T04:17:30.477Z,17.67
2023-03-03T04:19:59.783Z,20.17
2023-03-03T04:22:34.242Z,23.33
2023-03-03T04:25:05.483Z,20.30
2023-03-03T04:27:39.809Z,18.03
2023-03-03T04:30:10.525Z,20.37
2023-03-03T04:32:41.355Z,16.80
2023-03-03T04:35:13.549Z,18.40
2023-03-03T04:37:47.185Z,12.07
2023-03-03T04:40:18.503Z,18.53
2023-03-03T04:42:50.390Z,18.93
2023-03-03T04:45:20.179Z,16.10
2023-03-03T04:47:49.734Z,19.47
2023-03-03T04:50:19.482Z,18.83
2023-03-03T04:52:50.185Z,21.40
2023-03-03T04:55:19.703Z,17.90
2023-03-03T04:57:50.483Z,24.17
2023-03-03T05:00:20.948Z,17.83
2023-03-03T05:02:50.688Z,19.07
2023-03-03T05:05:20.234Z,20.33
2023-03-03T05:07:51.638Z,18.33
2023-03-03T05:10:21.787Z,18.70
2023-03-03T05:12:50.993Z,20.50
2023-03-03T05:15:20.481Z,20.60
2023-03-03T05:17:50.027Z,18.70
2023-03-03T05:20:19.525Z,22.30
2023-03-03T05:22:48.695Z,16.13
2023-03-03T05:25:19.705Z,18.70
2023-03-03T05:27:49.348Z,18.30
2023-03-03T05:30:18.513Z,20.50
2023-03-03T05:32:48.318Z,19.60
2023-03-03T05:35:17.874Z,18.70
2023-03-03T05:37:47.979Z,17.77
2023-03-03T05:40:17.481Z,24.83
2023-03-03T05:42:48.246Z,17.70
2023-03-03T05:45:20.657Z,19.27
2023-03-03T05:47:50.212Z,23.17
2023-03-03T05:50:19.483Z,20.77
2023-03-03T05:52:50.216Z,21.30
2023-03-03T05:55:19.486Z,21.37
2023-03-03T05:57:50.741Z,18.83
2023-03-03T06:00:20.498Z,21.83
2023-03-03T06:02:49.746Z,16.90
2023-03-03T06:05:19.385Z,21.33
2023-03-03T06:07:48.588Z,21.07
2023-03-03T06:10:18.242Z,21.30
2023-03-03T06:12:53.185Z,21.13
2023-03-03T06:15:22.463Z,27.27
2023-03-03T06:17:52.138Z,24.90
2023-03-03T06:20:21.986Z,19.73
2023-03-03T06:22:51.143Z,26.27
2023-03-03T06:25:20.516Z,16.83
2023-03-03T06:27:49.758Z,22.30
2023-03-03T06:30:20.441Z,22.20
2023-03-03T06:32:49.677Z,18.90
2023-03-03T06:35:19.260Z,23.57
2023-03-03T06:37:51.019Z,19.73
2023-03-03T06:40:20.642Z,23.77
2023-03-03T06:42:49.942Z,25.70
2023-03-03T06:45:20.825Z,26.10
2023-03-03T06:47:50.071Z,27.87
2023-03-03T06:50:21.118Z,23.53
2023-03-03T06:52:50.518Z,24.53
2023-03-03T06:55:23.884Z,22.47
2023-03-03T06:57:56.241Z,27.80
2023-03-03T07:00:30.865Z,25.73
2023-03-03T07:03:01.672Z,26.97
2023-03-03T07:05:31.297Z,25.70
2023-03-03T07:08:00.786Z,20.20
2023-03-03T07:10:31.552Z,30.87
2023-03-03T07:13:04.662Z,24.33
2023-03-03T07:15:36.566Z,24.43
2023-03-03T07:18:14.128Z,26.10
2023-03-03T07:20:43.637Z,23.23
2023-03-03T07:23:18.218Z,26.87
2023-03-03T07:25:48.822Z,26.27
2023-03-03T07:28:22.883Z,23.10
2023-03-03T07:30:54.000Z,26.60
2023-03-03T07:33:27.694Z,21.77
2023-03-03T07:35:57.619Z,27.73
2023-03-03T07:38:27.831Z,27.20
2023-03-03T07:40:58.057Z,21.23
2023-03-03T07:43:45.132Z,27.57
2023-03-03T07:46:25.876Z,25.50
2023-03-03T07:48:55.589Z,26.20
2023-03-03T07:51:28.002Z,26.03
2023-03-03T07:54:03.230Z,25.00
2023-03-03T07:56:33.293Z,23.70
2023-03-03T07:59:05.077Z,29.70
2023-03-03T08:01:43.022Z,23.43
2023-03-03T08:04:15.537Z,29.33
2023-03-03T08:06:47.562Z,25.97
2023-03-03T08:09:35.197Z,29.03
2023-03-03T08:12:13.782Z,37.17
2023-03-03T08:14:42.993Z,22.73
2023-03-03T08:17:17.165Z,25.53
2023-03-03T08:19:46.592Z,18.55
2023-03-03T08:22:17.554Z,20.70
2023-03-03T08:24:47.046Z,26.87
2023-03-03T08:27:16.440Z,21.67
2023-03-03T08:29:48.213Z,19.57
2023-03-03T08:32:19.521Z,27.53
2023-03-03T08:34:48.942Z,22.07
2023-03-03T08:37:18.155Z,25.70
2023-03-03T08:39:47.522Z,24.73
2023-03-03T08:42:16.957Z,26.33
2023-03-03T08:44:46.409Z,28.90
2023-03-03T08:47:16.127Z,23.20
2023-03-03T08:49:46.799Z,23.70
2023-03-03T08:52:15.979Z,22.50
2023-03-03T08:54:45.451Z,27.17
2023-03-03T08:57:14.684Z,20.63
2023-03-03T08:59:44.096Z,23.87
2023-03-03T09:02:13.400Z,28.17
2023-03-03T09:04:42.807Z,21.53
2023-03-03T09:07:13.673Z,22.83
2023-03-03T09:09:43.195Z,24.43
2023-03-03T09:12:17.138Z,27.73
2023-03-03T09:14:47.795Z,23.57
2023-03-03T09:17:27.043Z,21.87
2023-03-03T09:19:58.443Z,25.03
2023-03-03T09:22:30.214Z,29.13
2023-03-03T09:25:02.245Z,18.50
2023-03-03T09:27:32.432Z,23.77
2023-03-03T09:30:04.219Z,24.33
2023-03-03T09:32:35.997Z,24.40
2023-03-03T09:35:20.169Z,21.57
2023-03-03T09:37:52.336Z,25.30
2023-03-03T09:40:36.761Z,20.80
2023-03-03T09:43:07.504Z,26.83
2023-03-03T09:45:57.997Z,22.00
2023-03-03T09:48:30.735Z,22.47
2023-03-03T09:51:04.782Z,21.90
2023-03-03T09:53:44.667Z,21.70
2023-03-03T09:56:18.331Z,25.90
2023-03-03T09:58:55.704Z,30.80
2023-03-03T10:01:38.382Z,21.80
2023-03-03T10:04:21.428Z,23.93
2023-03-03T10:06:55.852Z,20.60
2023-03-03T10:09:42.825Z,27.23
2023-03-03T10:12:17.897Z,20.73
2023-03-03T10:14:56.992Z,22.47
2023-03-03T10:17:35.211Z,21.20
2023-03-03T10:20:08.686Z,22.67
2023-03-03T10:22:42.468Z,24.37
2023-03-03T10:25:19.931Z,32.40
2023-03-03T10:28:09.200Z,27.80
2023-03-03T10:30:54.734Z,30.60
2023-03-03T10:33:36.493Z,21.83
2023-03-03T10:36:22.567Z,27.70
2023-03-03T10:38:59.090Z,29.23
2023-03-03T10:41:42.050Z,32.17
2023-03-03T10:44:20.463Z,24.77
2023-03-03T10:47:08.154Z,25.53
2023-03-03T10:49:48.897Z,26.73
2023-03-03T10:52:24.825Z,27.30
2023-03-03T10:55:02.089Z,30.63
2023-03-03T10:57:37.900Z,27.70
2023-03-03T11:00:24.760Z,29.73
2023-03-03T11:03:00.658Z,29.53
2023-03-03T11:05:35.168Z,35.80
2023-03-03T11:08:07.714Z,34.40
2023-03-03T11:10:42.471Z,32.93
2023-03-03T11:13:17.746Z,36.07
2023-03-03T11:15:51.684Z,33.63
2023-03-03T11:18:27.285Z,33.27
2023-03-03T11:20:59.777Z,30.23
2023-03-03T11:23:41.477Z,27.77
2023-03-03T11:26:12.490Z,33.80
2023-03-03T11:28:50.582Z,29.90
2023-03-03T11:31:23.521Z,38.53
2023-03-03T11:33:59.592Z,31.67
2023-03-03T11:36:30.614Z,36.20
2023-03-03T11:39:01.298Z,33.13
2023-03-03T11:41:34.931Z,31.80
2023-03-03T11:44:12.798Z,32.33
2023-03-03T11:46:44.973Z,37.27
2023-03-03T11:49:17.377Z,36.53
2023-03-03T11:51:50.188Z,31.97
2023-03-03T11:54:22.434Z,33.93
2023-03-03T11:56:51.956Z,36.47
2023-03-03T11:59:38.591Z,37.50
2023-03-03T12:02:13.104Z,35.77
2023-03-03T12:04:44.576Z,32.40
2023-03-03T12:07:20.052Z,30.30
2023-03-03T12:09:56.561Z,38.90
2023-03-03T12:12:27.149Z,32.70
2023-03-03T12:15:04.679Z,40.47
2023-03-03T12:17:51.033Z,42.00
2023-03-03T12:20:24.727Z,41.23
2023-03-03T12:23:06.898Z,43.47
2023-03-03T12:25:38.763Z,47.90
2023-03-03T12:28:11.140Z,35.80
2023-03-03T12:30:49.826Z,30.77
2023-03-03T12:33:23.479Z,35.30
2023-03-03T12:35:57.085Z,38.03
2023-03-03T12:38:32.879Z,31.17
2023-03-03T12:41:05.808Z,27.93
2023-03-03T12:43:42.509Z,31.20
2023-03-03T12:46:18.284Z,33.17
2023-03-03T12:48:48.404Z,31.67
2023-03-03T12:51:22.744Z,38.67
2023-03-03T12:53:59.648Z,32.53
2023-03-03T12:56:31.888Z,36.77
2023-03-03T12:59:06.129Z,34.43
2023-03-03T13:01:43.716Z,38.00
2023-03-03T13:04:15.850Z,36.87
2023-03-03T13:06:46.875Z,38.73
2023-03-03T13:09:23.400Z,29.70
2023-03-03T13:12:01.707Z,34.83
2023-03-03T13:14:36.469Z,36.47
2023-03-03T13:17:11.910Z,34.83
2023-03-03T13:19:42.987Z,31.83
2023-03-03T13:22:15.923Z,33.67
2023-03-03T13:24:51.490Z,39.47
2023-03-03T13:27:22.518Z,42.67
2023-03-03T13:29:58.906Z,37.90
2023-03-03T13:32:34.517Z,37.93
2023-03-03T13:35:06.389Z,33.57
2023-03-03T13:37:38.077Z,36.63
2023-03-03T13:40:08.844Z,37.40
2023-03-03T13:42:41.638Z,36.83
2023-03-03T13:45:19.885Z,32.83
2023-03-03T13:47:52.958Z,33.50
2023-03-03T13:50:25.310Z,31.30
2023-03-03T13:53:01.488Z,43.73
2023-03-03T13:55:32.429Z,33.73
2023-03-03T13:58:03.465Z,34.70
2023-03-03T14:00:38.619Z,42.37
2023-03-03T14:03:18.449Z,34.97
2023-03-03T14:05:48.317Z,33.87
2023-03-03T14:08:22.265Z,34.73
2023-03-03T14:10:57.111Z,38.30
2023-03-03T14:13:31.226Z,32.30
2023-03-03T14:16:04.005Z,33.20
2023-03-03T14:18:36.883Z,38.73
2023-03-03T14:21:08.134Z,34.50
2023-03-03T14:23:45.708Z,37.40
2023-03-03T14:26:15.705Z,41.53
2023-03-03T14:28:46.010Z,35.50
2023-03-03T14:31:20.172Z,34.67
2023-03-03T14:33:59.828Z,33.90
2023-03-03T14:36:30.790Z,40.90
2023-03-03T14:39:00.237Z,41.37
2023-03-03T14:41:40.928Z,29.57
2023-03-03T14:44:25.002Z,32.37
2023-03-03T14:47:04.138Z,37.27
2023-03-03T14:49:37.164Z,35.97
2023-03-03T14:52:13.739Z,34.60
2023-03-03T14:54:46.345Z,31.77
2023-03-03T14:57:18.247Z,30.37
2023-03-03T15:00:00.589Z,27.17
2023-03-03T15:02:31.669Z,32.60
2023-03-03T15:05:16.208Z,47.30
2023-03-03T15:07:47.213Z,26.50
2023-03-03T15:10:28.495Z,26.97
2023-03-03T15:12:57.946Z,31.83
2023-03-03T15:15:30.129Z,33.90
2023-03-03T15:18:02.850Z,26.47
2023-03-03T15:20:43.651Z,30.80
2023-03-03T15:23:33.264Z,36.20
2023-03-03T15:26:04.532Z,27.20
2023-03-03T15:28:37.837Z,29.33
2023-03-03T15:31:13.653Z,33.07
2023-03-03T15:33:48.127Z,26.73
2023-03-03T15:36:23.024Z,25.33
2023-03-03T15:38:58.731Z,29.57
2023-03-03T15:41:29.127Z,33.20
2023-03-03T15:44:03.012Z,30.43
2023-03-03T15:46:38.105Z,25.37
2023-03-03T15:49:15.968Z,33.43
2023-03-03T15:52:03.108Z,30.53
2023-03-03T15:54:48.346Z,23.80
2023-03-03T15:57:23.953Z,25.40
2023-03-03T16:00:05.243Z,28.53
2023-03-03T16:02:45.345Z,24.80
2023-03-03T16:05:17.103Z,27.47
2023-03-03T16:07:53.361Z,32.53
2023-03-03T16:10:26.900Z,41.63
2023-03-03T16:12:59.216Z,26.83
2023-03-03T16:15:40.239Z,25.13
2023-03-03T16:18:13.603Z,28.13
2023-03-03T16:20:47.648Z,27.97
2023-03-03T16:23:19.467Z,23.80
2023-03-03T16:26:00.389Z,28.73
2023-03-03T16:28:53.728Z,28.23
2023-03-03T16:31:24.869Z,26.43
2023-03-03T16:33:59.507Z,25.73
2023-03-03T16:36:31.813Z,28.90
2023-03-03T16:39:04.305Z,32.90
2023-03-03T16:41:40.770Z,30.40
2023-03-03T16:44:15.115Z,27.87
2023-03-03T16:46:45.782Z,31.63
2023-03-03T16:49:17.643Z,33.63
2023-03-03T16:51:51.137Z,28.03
2023-03-03T16:54:23.029Z,33.50
2023-03-03T16:57:01.178Z,27.90
2023-03-03T16:59:50.784Z,28.23
2023-03-03T17:02:34.876Z,26.67
2023-03-03T17:05:07.794Z,27.33
2023-03-03T17:07:43.614Z,36.80
2023-03-03T17:10:20.529Z,28.40
2023-03-03T17:12:58.705Z,30.57
2023-03-03T17:15:34.552Z,29.97
2023-03-03T17:18:07.557Z,34.63
2023-03-03T17:20:39.805Z,34.83
2023-03-03T17:23:19.755Z,27.80
2023-03-03T17:25:52.346Z,27.60
2023-03-03T17:28:30.984Z,35.90
2023-03-03T17:31:04.592Z,23.83
2023-03-03T17:33:41.083Z,32.27
2023-03-03T17:36:18.627Z,30.10
2023-03-03T17:38:56.498Z,31.33
2023-03-03T17:41:28.169Z,30.80
2023-03-03T17:44:01.673Z,26.30
2023-03-03T17:46:35.186Z,32.17
2023-03-03T17:49:23.252Z,45.17
2023-03-03T17:52:13.377Z,42.63
2023-03-03T17:54:51.704Z,35.80
2023-03-03T17:57:26.847Z,34.63
2023-03-03T18:00:14.465Z,36.50
2023-03-03T18:02:47.527Z,29.90
2023-03-03T18:05:38.051Z,33.03
2023-03-03T18:08:25.176Z,38.40
2023-03-03T18:11:16.406Z,41.00
2023-03-03T18:13:55.036Z,31.30
2023-03-03T18:16:31.596Z,35.40
2023-03-03T18:19:15.168Z,28.97
2023-03-03T18:21:46.274Z,32.23
2023-03-03T18:24:29.844Z,27.77
2023-03-03T18:27:14.606Z,35.90
2023-03-03T18:30:03.905Z,29.70
2023-03-03T18:32:44.559Z,37.83
2023-03-03T18:35:26.626Z,29.07
2023-03-03T18:37:57.211Z,38.47
2023-03-03T18:40:31.936Z,46.53
2023-03-03T18:43:01.487Z,31.50
2023-03-03T18:45:50.841Z,28.00
2023-03-03T18:48:22.270Z,37.47
2023-03-03T18:50:52.661Z,32.83
2023-03-03T18:53:27.040Z,31.60
2023-03-03T18:55:57.536Z,24.60
2023-03-03T18:58:35.176Z,27.30
2023-03-03T19:01:22.090Z,28.63
2023-03-03T19:04:03.242Z,27.13
2023-03-03T19:06:34.655Z,28.40
2023-03-03T19:09:04.284Z,25.80
2023-03-03T19:11:35.539Z,29.90
2023-03-03T19:14:21.088Z,31.50
2023-03-03T19:16:52.080Z,26.50
2023-03-03T19:19:24.304Z,28.17
2023-03-03T19:21:54.649Z,32.00
2023-03-03T19:24:32.202Z,27.90
2023-03-03T19:27:10.071Z,28.40
2023-03-03T19:29:58.557Z,33.13
2023-03-03T19:32:36.562Z,32.00
2023-03-03T19:35:15.864Z,38.63
2023-03-03T19:37:50.841Z,35.20
2023-03-03T19:40:23.580Z,39.83
2023-03-03T19:42:59.157Z,34.43
2023-03-03T19:45:33.998Z,38.13
2023-03-03T19:48:07.251Z,35.60
2023-03-03T19:50:44.097Z,32.00
2023-03-03T19:53:20.759Z,31.87
2023-03-03T19:55:56.915Z,32.60
2023-03-03T19:58:31.415Z,31.83
2023-03-03T20:01:31.762Z,28.00
2023-03-03T20:04:06.063Z,42.10
2023-03-03T20:06:43.758Z,38.87
2023-03-03T20:09:18.805Z,39.43
2023-03-03T20:11:56.483Z,29.93
2023-03-03T20:14:33.376Z,37.20
2023-03-03T20:17:07.429Z,34.77
2023-03-03T20:19:42.475Z,28.57
2023-03-03T20:22:15.719Z,38.00
2023-03-03T20:25:03.969Z,34.50
2023-03-03T20:27:37.154Z,34.13
2023-03-03T20:30:14.330Z,33.50
2023-03-03T20:32:55.389Z,44.73
2023-03-03T20:35:30.609Z,36.40
2023-03-03T20:38:05.891Z,31.87
2023-03-03T20:40:39.204Z,33.13
2023-03-03T20:43:15.015Z,35.43
2023-03-03T20:45:49.097Z,36.40
2023-03-03T20:48:24.682Z,35.30
2023-03-03T20:50:58.131Z,33.30
2023-03-03T20:53:32.896Z,31.77
2023-03-03T20:56:05.239Z,35.67
2023-03-03T20:58:39.454Z,36.97
2023-03-03T21:01:09.869Z,37.00
2023-03-03T21:03:41.070Z,33.47
2023-03-03T21:06:15.550Z,32.33
2023-03-03T21:08:48.575Z,36.40
2023-03-03T21:11:19.869Z,32.10
2023-03-03T21:13:51.914Z,36.17
2023-03-03T21:16:41.861Z,39.80
2023-03-03T21:19:12.518Z,34.93
2023-03-03T21:21:42.270Z,34.77
2023-03-03T21:24:19.865Z,29.50
2023-03-03T21:26:50.794Z,34.47
2023-03-03T21:29:20.838Z,31.13
2023-03-03T21:31:50.843Z,32.13
2023-03-03T21:34:25.021Z,30.20
2023-03-03T21:36:55.198Z,32.50
2023-03-03T21:39:27.543Z,34.37
2023-03-03T21:41:58.076Z,36.33
2023-03-03T21:44:31.136Z,36.67
2023-03-03T21:47:00.949Z,36.33
2023-03-03T21:49:30.458Z,33.07
2023-03-03T21:51:59.783Z,39.17
2023-03-03T21:54:30.451Z,37.60
2023-03-03T21:56:59.850Z,40.00
2023-03-03T21:59:29.059Z,34.40
2023-03-03T22:01:58.310Z,38.50
2023-03-03T22:04:28.027Z,40.70
2023-03-03T22:06:57.452Z,40.40
2023-03-03T22:09:26.792Z,41.83
2023-03-03T22:11:57.682Z,36.00
2023-03-03T22:14:26.998Z,39.40
2023-03-03T22:16:56.182Z,40.40
2023-03-03T22:19:25.364Z,35.87
2023-03-03T22:21:54.637Z,39.13
2023-03-03T22:24:23.993Z,42.70
2023-03-03T22:26:53.162Z,39.50
2023-03-03T22:29:24.050Z,37.17
2023-03-03T22:31:53.501Z,42.93
2023-03-03T22:34:22.894Z,37.27
2023-03-03T22:36:52.142Z,37.80
2023-03-03T22:39:21.853Z,36.17
2023-03-03T22:41:51.945Z,38.30
2023-03-03T22:44:21.195Z,39.00
2023-03-03T22:46:51.968Z,38.40
2023-03-03T22:49:21.447Z,37.77
2023-03-03T22:51:50.691Z,40.13
2023-03-03T22:54:20.246Z,48.83
2023-03-03T22:56:49.493Z,41.33
2023-03-03T22:59:18.994Z,36.73
2023-03-03T23:01:48.702Z,38.37
2023-03-03T23:04:19.683Z,34.83
2023-03-03T23:06:50.243Z,39.23
2023-03-03T23:09:19.653Z,35.83
2023-03-03T23:11:48.787Z,38.70
2023-03-03T23:14:18.388Z,40.17
2023-03-03T23:16:47.624Z,41.60
2023-03-03T23:19:17.075Z,40.53
2023-03-03T23:21:47.685Z,38.70
2023-03-03T23:24:17.336Z,39.03
2023-03-03T23:26:46.628Z,45.73
2023-03-03T23:29:16.315Z,39.70
2023-03-03T23:31:45.535Z,41.90
2023-03-03T23:34:14.806Z,43.37
2023-03-03T23:36:44.214Z,40.30
2023-03-03T23:39:15.580Z,37.23
2023-03-03T23:41:45.420Z,36.53
2023-03-03T23:44:14.660Z,38.73
2023-03-03T23:46:44.054Z,37.10
2023-03-03T23:49:13.623Z,38.00
2023-03-03T23:51:42.925Z,42.97
2023-03-03T23:54:12.181Z,41.30
2023-03-03T23:56:42.853Z,44.63
2023-03-03T23:59:12.086Z,43.67
